Time;durP1;ratioP1;P1;durP2;ratioP2;P2;SDS_P1;SDS_P2;PMS_P1;PMS_P2;Temp;Humidity;BMP_temperature;BMP_pressure;BME280_temperature;BME280_humidity;BME280_pressure;Samples;Min_cycle;Max_cycle;Signal;HPM_P1;HPM_P2
2022/07/17 00:02:06;;;;;;;3.33;3.03;;;14.70;91.30;;;;;;5044861;28;20036;-39
2022/07/17 00:04:31;;;;;;;3.83;3.10;;;14.70;90.10;;;;;;5046046;28;20017;-39
2022/07/17 00:06:57;;;;;;;3.05;2.78;;;14.70;90.00;;;;;;5043325;28;20031;-39
2022/07/17 00:09:23;;;;;;;4.07;3.03;;;14.70;89.50;;;;;;5044671;28;20036;-39
2022/07/17 00:11:48;;;;;;;3.38;2.97;;;14.70;90.30;;;;;;5045377;28;20029;-39
2022/07/17 00:14:14;;;;;;;2.95;2.70;;;14.70;91.40;;;;;;5040858;28;20067;-39
2022/07/17 00:16:39;;;;;;;3.42;2.90;;;14.70;89.50;;;;;;5041138;28;20025;-38
2022/07/17 00:19:06;;;;;;;3.92;3.03;;;14.70;89.00;;;;;;5048756;28;20039;-39
2022/07/17 00:21:32;;;;;;;4.05;2.92;;;14.70;89.10;;;;;;5041234;28;20099;-39
2022/07/17 00:23:58;;;;;;;4.10;3.20;;;14.70;88.90;;;;;;5047209;28;20025;-38
2022/07/17 00:26:23;;;;;;;4.53;2.90;;;14.80;87.10;;;;;;5048048;28;20103;-39
2022/07/17 00:28:49;;;;;;;4.18;3.08;;;14.80;87.10;;;;;;5043908;28;20021;-39
2022/07/17 00:31:15;;;;;;;3.75;2.90;;;14.80;88.40;;;;;;5043701;28;20092;-36
2022/07/17 00:33:41;;;;;;;5.50;2.72;;;14.70;87.70;;;;;;5044280;28;20091;-36
2022/07/17 00:36:07;;;;;;;3.33;3.03;;;14.60;88.20;;;;;;5044370;28;20075;-39
2022/07/17 00:38:32;;;;;;;3.47;2.97;;;14.50;91.60;;;;;;5043397;28;20044;-39
2022/07/17 00:40:58;;;;;;;3.22;2.92;;;14.40;89.20;;;;;;5046036;28;20033;-37
2022/07/17 00:43:24;;;;;;;3.30;3.00;;;14.40;89.10;;;;;;5044840;28;20036;-39
2022/07/17 00:45:58;;;;;;;3.10;2.78;;;14.40;91.20;;;;;;5048505;28;20503;-37
2022/07/17 00:48:24;;;;;;;3.78;3.10;;;14.30;89.80;;;;;;5043724;28;20033;-38
2022/07/17 00:50:50;;;;;;;3.33;2.92;;;14.00;92.70;;;;;;5047033;28;20021;-38
2022/07/17 00:53:17;;;;;;;3.63;3.13;;;14.10;90.80;;;;;;5044883;28;20037;-39
2022/07/17 00:55:46;;;;;;;3.45;3.15;;;13.70;95.50;;;;;;5068508;28;20296;-39
2022/07/17 00:58:21;;;;;;;3.92;2.90;;;13.50;97.90;;;;;;5046014;28;20039;-36
2022/07/17 01:00:51;;;;;;;4.13;3.60;;;13.50;95.60;;;;;;5044327;28;20091;-37
2022/07/17 01:03:18;;;;;;;3.95;3.38;;;13.50;97.00;;;;;;5047490;28;20563;-40
2022/07/17 01:05:44;;;;;;;3.53;3.22;;;13.50;95.50;;;;;;5043255;28;20052;-39
2022/07/17 01:08:10;;;;;;;3.67;3.05;;;13.60;95.00;;;;;;5048714;28;20031;-39
2022/07/17 01:10:36;;;;;;;3.60;3.10;;;13.70;94.20;;;;;;5036156;28;20431;-36
2022/07/17 01:13:02;;;;;;;3.67;3.25;;;13.70;94.80;;;;;;5030092;28;20051;-39
2022/07/17 01:15:29;;;;;;;5.35;3.22;;;13.80;93.10;;;;;;5029314;28;20029;-37
2022/07/17 01:17:55;;;;;;;3.92;3.10;;;13.80;93.50;;;;;;5037424;28;20108;-39
2022/07/17 01:20:20;;;;;;;3.63;3.33;;;13.70;95.40;;;;;;5043391;28;20434;-36
2022/07/17 01:22:50;;;;;;;3.75;3.13;;;13.70;93.50;;;;;;5045533;28;20608;-40
2022/07/17 01:25:19;;;;;;;3.58;3.25;;;13.60;95.00;;;;;;5043761;28;20450;-39
2022/07/17 01:27:44;;;;;;;3.92;3.17;;;13.60;93.80;;;;;;5044212;28;20040;-39
2022/07/17 01:30:10;;;;;;;3.90;3.30;;;13.50;96.20;;;;;;5046710;28;20029;-39
2022/07/17 01:32:39;;;;;;;4.65;3.30;;;13.50;95.30;;;;;;5043669;28;20430;-38
2022/07/17 01:35:06;;;;;;;3.40;2.95;;;13.50;94.30;;;;;;5046963;28;20390;-37
2022/07/17 01:37:32;;;;;;;4.88;3.30;;;13.40;96.10;;;;;;5043136;28;20032;-39
2022/07/17 01:39:57;;;;;;;3.72;3.40;;;13.30;97.00;;;;;;5037945;28;20025;-39
2022/07/17 01:42:25;;;;;;;4.78;3.55;;;13.10;95.30;;;;;;5038749;28;20120;-38
2022/07/17 01:44:52;;;;;;;3.72;2.97;;;12.90;96.80;;;;;;5036384;28;20032;-38
2022/07/17 01:47:18;;;;;;;5.00;3.58;;;12.70;98.70;;;;;;5046249;28;20115;-39
2022/07/17 01:49:52;;;;;;;3.75;3.22;;;12.70;97.00;;;;;;5030449;28;20071;-39
2022/07/17 01:52:18;;;;;;;6.00;3.00;;;12.60;99.00;;;;;;5032123;28;20087;-39
2022/07/17 01:54:44;;;;;;;3.22;2.92;;;12.80;99.40;;;;;;5031351;28;20040;-39
2022/07/17 01:57:11;;;;;;;4.65;3.75;;;12.70;97.20;;;;;;5033073;28;20028;-37
2022/07/17 01:59:38;;;;;;;3.40;3.10;;;12.40;99.90;;;;;;5041823;28;20049;-38
2022/07/17 02:02:04;;;;;;;3.70;3.28;;;12.10;99.90;;;;;;5037022;28;20033;-39
2022/07/17 02:04:31;;;;;;;3.50;3.20;;;12.40;98.70;;;;;;5032786;28;20147;-38
2022/07/17 02:06:56;;;;;;;3.95;3.40;;;12.40;99.90;;;;;;5037828;28;20743;-38
2022/07/17 02:09:23;;;;;;;5.28;3.53;;;12.50;99.20;;;;;;5031418;28;20063;-36
2022/07/17 02:11:48;;;;;;;3.80;3.15;;;12.50;98.50;;;;;;5033996;28;20033;-37
2022/07/17 02:14:14;;;;;;;3.65;3.33;;;12.60;97.30;;;;;;5032625;28;20050;-39
2022/07/17 02:16:40;;;;;;;4.60;3.20;;;12.60;99.20;;;;;;5030149;28;20040;-39
2022/07/17 02:19:06;;;;;;;4.00;3.05;;;12.60;97.30;;;;;;5033655;28;20029;-38
2022/07/17 02:21:31;;;;;;;3.97;3.10;;;12.70;96.70;;;;;;5034273;28;20048;-36
2022/07/17 02:23:57;;;;;;;3.78;3.38;;;12.70;96.70;;;;;;5034145;28;20029;-38
2022/07/17 02:26:22;;;;;;;5.85;3.70;;;12.70;97.60;;;;;;5032179;28;20041;-39
2022/07/17 02:28:48;;;;;;;4.43;3.58;;;12.80;96.30;;;;;;5037163;28;20021;-37
2022/07/17 02:31:14;;;;;;;4.07;3.53;;;12.70;98.80;;;;;;5041628;28;20660;-38
2022/07/17 02:33:39;;;;;;;4.28;3.85;;;12.70;96.30;;;;;;5034168;28;20037;-39
2022/07/17 02:36:06;;;;;;;3.92;3.20;;;12.50;99.90;;;;;;5033767;28;20035;-37
2022/07/17 02:38:31;;;;;;;4.68;3.50;;;12.50;99.90;;;;;;5036219;28;20029;-36
2022/07/17 02:40:57;;;;;;;4.00;3.60;;;12.50;97.40;;;;;;5032988;28;20021;-37
2022/07/17 02:43:23;;;;;;;3.30;3.00;;;12.50;96.70;;;;;;5041989;28;20047;-37
2022/07/17 02:45:48;;;;;;;5.75;3.30;;;12.50;96.40;;;;;;5032752;28;20057;-38
2022/07/17 02:48:14;;;;;;;3.95;3.28;;;12.50;97.20;;;;;;5031638;28;20052;-38
2022/07/17 02:50:39;;;;;;;5.05;3.38;;;12.50;97.40;;;;;;5032459;28;20032;-36
2022/07/17 02:53:05;;;;;;;6.78;3.10;;;12.50;97.10;;;;;;5033158;28;20028;-39
2022/07/17 02:55:31;;;;;;;6.20;3.85;;;12.50;97.00;;;;;;5032297;28;20037;-38
2022/07/17 02:57:57;;;;;;;3.80;3.40;;;12.50;96.70;;;;;;5029307;28;20126;-36
2022/07/17 03:00:23;;;;;;;4.85;3.30;;;12.50;96.90;;;;;;5037190;28;20096;-37
2022/07/17 03:02:49;;;;;;;4.70;3.47;;;12.50;96.40;;;;;;5034803;28;20075;-38
2022/07/17 03:05:16;;;;;;;3.35;3.05;;;12.50;97.20;;;;;;5030724;28;20044;-38
2022/07/17 03:07:42;;;;;;;3.95;3.08;;;12.40;98.00;;;;;;5032522;28;20482;-37
2022/07/17 03:10:08;;;;;;;4.43;3.08;;;12.30;98.10;;;;;;5046180;28;20067;-39
2022/07/17 03:12:34;;;;;;;3.50;3.20;;;12.30;97.70;;;;;;5046388;28;20063;-37
2022/07/17 03:15:00;;;;;;;3.10;2.70;;;12.20;96.90;;;;;;5047317;28;20505;-38
2022/07/17 03:17:25;;;;;;;2.65;2.30;;;12.20;95.30;;;;;;5045916;28;20021;-37
2022/07/17 03:19:52;;;;;;;2.95;2.53;;;12.10;95.00;;;;;;5046086;28;20027;-39
2022/07/17 03:22:17;;;;;;;2.60;2.40;;;11.90;96.10;;;;;;5047224;28;20056;-38
2022/07/17 03:24:43;;;;;;;2.78;2.45;;;11.80;96.80;;;;;;5046478;28;20458;-39
2022/07/17 03:27:09;;;;;;;2.40;2.20;;;11.70;98.50;;;;;;5048409;28;20119;-39
2022/07/17 03:29:34;;;;;;;2.55;2.35;;;11.60;98.90;;;;;;5043819;28;20500;-37
2022/07/17 03:32:00;;;;;;;3.60;3.00;;;11.60;98.50;;;;;;5047203;28;20029;-39
2022/07/17 03:34:26;;;;;;;3.15;2.42;;;11.70;97.90;;;;;;5049902;28;20068;-38
2022/07/17 03:36:51;;;;;;;4.45;2.78;;;11.80;97.40;;;;;;5043641;28;20752;-39
2022/07/17 03:39:17;;;;;;;3.80;3.10;;;11.80;98.00;;;;;;5048783;28;20051;-38
2022/07/17 03:41:43;;;;;;;5.35;3.60;;;11.80;97.70;;;;;;5048526;28;20025;-38
2022/07/17 03:44:08;;;;;;;3.50;3.17;;;11.80;99.90;;;;;;5043431;28;20033;-39
2022/07/17 03:46:34;;;;;;;3.42;2.90;;;11.70;99.90;;;;;;5047772;28;20064;-38
2022/07/17 03:49:00;;;;;;;3.97;3.25;;;11.70;99.90;;;;;;5048349;28;20028;-36
2022/07/17 03:51:26;;;;;;;4.72;3.03;;;11.70;99.90;;;;;;5045985;28;20154;-39
2022/07/17 03:53:51;;;;;;;6.55;3.22;;;11.70;99.90;;;;;;5044073;28;20482;-39
2022/07/17 03:56:17;;;;;;;3.30;3.00;;;11.70;99.90;;;;;;5045848;28;20041;-37
2022/07/17 03:58:42;;;;;;;3.20;2.90;;;11.50;99.90;;;;;;5043827;28;20025;-39
2022/07/17 04:01:08;;;;;;;3.25;3.00;;;11.40;99.90;;;;;;5044771;28;20506;-38
2022/07/17 04:03:34;;;;;;;3.47;3.17;;;11.50;99.90;;;;;;5044652;28;20040;-39
2022/07/17 04:05:59;;;;;;;4.93;2.75;;;11.50;99.90;;;;;;5045044;28;20036;-37
2022/07/17 04:08:25;;;;;;;3.33;2.70;;;11.60;99.90;;;;;;5045913;28;20025;-39
2022/07/17 04:10:51;;;;;;;2.85;2.55;;;11.70;99.90;;;;;;5045339;28;20029;-39
2022/07/17 04:13:16;;;;;;;3.35;2.88;;;11.80;98.80;;;;;;5047235;28;20231;-39
2022/07/17 04:15:59;;;;;;;2.85;2.65;;;11.80;99.00;;;;;;5048589;28;20032;-36
2022/07/17 04:18:35;;;;;;;3.38;3.08;;;11.90;99.60;;;;;;5046108;28;20033;-37
2022/07/17 04:21:07;;;;;;;3.95;3.58;;;11.90;99.60;;;;;;5046535;28;20510;-38
2022/07/17 04:23:33;;;;;;;3.65;2.85;;;12.00;99.60;;;;;;5042744;28;20040;-39
2022/07/17 04:25:58;;;;;;;4.20;3.67;;;12.10;99.90;;;;;;5046202;28;20020;-39
2022/07/17 04:28:24;;;;;;;3.33;3.00;;;12.10;99.90;;;;;;5046608;28;20112;-39
2022/07/17 04:30:50;;;;;;;4.05;3.30;;;12.10;99.90;;;;;;5048298;28;20033;-39
2022/07/17 04:33:16;;;;;;;3.33;3.03;;;12.20;99.80;;;;;;5043370;28;20558;-37
2022/07/17 04:35:42;;;;;;;3.92;2.85;;;12.20;99.90;;;;;;5043431;28;20029;-38
2022/07/17 04:38:08;;;;;;;3.30;2.97;;;12.20;99.90;;;;;;5048969;28;20040;-39
2022/07/17 04:40:35;;;;;;;3.65;3.28;;;12.20;99.90;;;;;;5043606;28;20036;-39
2022/07/17 04:43:02;;;;;;;3.60;3.30;;;12.20;99.90;;;;;;5047544;28;20375;-39
2022/07/17 04:45:28;;;;;;;3.70;3.28;;;12.30;99.90;;;;;;5049339;28;20090;-38
2022/07/17 04:47:54;;;;;;;4.82;3.35;;;12.30;99.90;;;;;;5048999;28;20377;-38
2022/07/17 04:50:20;;;;;;;4.50;3.63;;;12.40;99.90;;;;;;5044567;28;20029;-39
2022/07/17 04:52:45;;;;;;;3.33;3.03;;;12.50;99.90;;;;;;5051108;28;20025;-39
2022/07/17 04:55:11;;;;;;;4.05;3.65;;;12.50;99.90;;;;;;5042522;28;20508;-39
2022/07/17 04:57:37;;;;;;;4.00;3.22;;;12.60;99.90;;;;;;5043843;28;20051;-37
2022/07/17 05:00:05;;;;;;;3.78;3.38;;;12.70;99.90;;;;;;5043064;28;20028;-39
2022/07/17 05:02:31;;;;;;;5.00;3.80;;;12.80;99.90;;;;;;5043429;28;20471;-38
2022/07/17 05:04:57;;;;;;;4.63;3.63;;;12.90;99.90;;;;;;5045708;28;20025;-37
2022/07/17 05:07:23;;;;;;;4.30;3.35;;;13.00;99.90;;;;;;5045201;28;20033;-38
2022/07/17 05:09:49;;;;;;;3.58;3.25;;;13.10;99.90;;;;;;5047860;28;20037;-37
2022/07/17 05:12:15;;;;;;;3.90;3.50;;;13.20;99.90;;;;;;5045677;28;20500;-39
2022/07/17 05:14:40;;;;;;;4.65;3.58;;;13.30;99.80;;;;;;5041089;28;20036;-38
2022/07/17 05:17:06;;;;;;;6.97;3.60;;;13.40;99.40;;;;;;5042038;28;20032;-39
2022/07/17 05:19:32;;;;;;;5.47;3.70;;;13.50;99.90;;;;;;5045211;28;20056;-37
2022/07/17 05:21:58;;;;;;;4.00;3.42;;;13.50;99.90;;;;;;5044368;28;20468;-39
2022/07/17 05:24:23;;;;;;;4.38;3.88;;;13.60;99.80;;;;;;5042705;28;20033;-35
2022/07/17 05:26:49;;;;;;;4.68;4.00;;;13.70;99.90;;;;;;5043186;28;20033;-39
2022/07/17 05:29:14;;;;;;;5.22;3.70;;;13.80;99.90;;;;;;5045806;28;20446;-37
2022/07/17 05:31:40;;;;;;;4.40;4.00;;;13.80;99.90;;;;;;5045727;28;20139;-39
2022/07/17 05:34:06;;;;;;;4.32;3.90;;;13.80;99.90;;;;;;5048681;28;20044;-39
2022/07/17 05:36:31;;;;;;;4.10;3.70;;;14.00;99.10;;;;;;5048163;28;20108;-39
2022/07/17 05:38:57;;;;;;;4.68;3.97;;;14.10;99.10;;;;;;5050490;28;20528;-37
2022/07/17 05:41:23;;;;;;;4.72;4.30;;;14.10;99.00;;;;;;5048949;28;20146;-39
2022/07/17 05:43:48;;;;;;;5.90;4.53;;;14.20;99.60;;;;;;5047268;28;21162;-38
2022/07/17 05:46:14;;;;;;;5.40;4.80;;;14.30;99.50;;;;;;5045950;28;20029;-38
2022/07/17 05:48:39;;;;;;;5.10;4.55;;;14.50;99.00;;;;;;5047614;28;20033;-39
2022/07/17 05:51:05;;;;;;;5.45;4.47;;;14.60;98.40;;;;;;5049629;28;20085;-39
2022/07/17 05:53:31;;;;;;;6.30;4.43;;;14.80;99.90;;;;;;5051016;28;20040;-37
2022/07/17 05:55:57;;;;;;;5.75;4.68;;;15.00;99.60;;;;;;5049426;28;20033;-38
2022/07/17 05:58:23;;;;;;;6.25;4.55;;;15.10;99.90;;;;;;5044432;28;20036;-37
2022/07/17 06:00:49;;;;;;;5.10;4.63;;;15.30;99.90;;;;;;5045080;28;20082;-35
2022/07/17 06:03:15;;;;;;;4.63;4.13;;;15.40;99.20;;;;;;5046317;28;20028;-37
2022/07/17 06:05:41;;;;;;;4.72;4.20;;;15.60;97.70;;;;;;5044963;28;20029;-37
2022/07/17 06:08:07;;;;;;;7.20;4.47;;;15.80;97.80;;;;;;5050256;28;20045;-39
2022/07/17 06:10:33;;;;;;;6.35;4.65;;;16.00;95.80;;;;;;5055857;28;20482;-39
2022/07/17 06:12:58;;;;;;;5.70;4.10;;;16.20;95.50;;;;;;5046282;28;20083;-38
2022/07/17 06:15:24;;;;;;;5.55;4.60;;;16.20;93.60;;;;;;5046766;28;20474;-39
2022/07/17 06:17:50;;;;;;;5.72;4.32;;;16.40;94.00;;;;;;5047612;28;20108;-39
2022/07/17 06:20:17;;;;;;;4.72;4.13;;;16.60;93.70;;;;;;5051546;28;20517;-39
2022/07/17 06:22:43;;;;;;;6.05;4.40;;;16.70;92.70;;;;;;5048023;28;20048;-39
2022/07/17 06:25:10;;;;;;;8.65;5.35;;;16.90;91.20;;;;;;5046070;28;20110;-37
2022/07/17 06:27:39;;;;;;;4.63;4.22;;;17.00;91.80;;;;;;5048535;28;20110;-38
2022/07/17 06:30:06;;;;;;;4.85;4.20;;;17.20;91.80;;;;;;5047813;28;20025;-38
2022/07/17 06:32:31;;;;;;;6.28;4.30;;;17.30;90.50;;;;;;5046012;28;20123;-39
2022/07/17 06:34:57;;;;;;;4.95;4.03;;;17.50;90.80;;;;;;5048157;28;20513;-36
2022/07/17 06:37:22;;;;;;;5.97;4.25;;;17.70;86.80;;;;;;5045604;28;20075;-37
2022/07/17 06:39:48;;;;;;;6.10;3.60;;;17.70;88.30;;;;;;5047077;28;20033;-38
2022/07/17 06:42:13;;;;;;;4.43;3.85;;;17.80;84.10;;;;;;5045766;28;20028;-39
2022/07/17 06:44:39;;;;;;;4.20;3.80;;;18.00;86.50;;;;;;5045551;28;20571;-38
2022/07/17 06:47:04;;;;;;;5.88;4.20;;;18.10;83.40;;;;;;5043952;28;20674;-39
2022/07/17 06:49:30;;;;;;;3.53;3.15;;;18.20;83.60;;;;;;5048973;28;20040;-39
2022/07/17 06:51:56;;;;;;;3.88;3.47;;;18.40;84.60;;;;;;5048569;28;20109;-37
2022/07/17 06:54:25;;;;;;;5.22;3.90;;;18.50;80.80;;;;;;5043789;28;20031;-39
2022/07/17 06:56:54;;;;;;;4.78;3.35;;;18.70;78.90;;;;;;5049168;28;20490;-38
2022/07/17 06:59:20;;;;;;;4.75;3.08;;;18.90;78.00;;;;;;5045078;28;20032;-39
2022/07/17 07:01:46;;;;;;;3.40;3.10;;;19.00;75.20;;;;;;5043305;28;20493;-39
2022/07/17 07:04:12;;;;;;;4.05;3.05;;;19.10;75.20;;;;;;5047304;28;20151;-38
2022/07/17 07:06:37;;;;;;;3.40;2.80;;;19.30;74.10;;;;;;5042506;28;20127;-39
2022/07/17 07:09:03;;;;;;;3.17;2.72;;;19.50;71.20;;;;;;5039842;28;20571;-39
2022/07/17 07:11:29;;;;;;;3.17;2.92;;;19.70;69.50;;;;;;5046883;28;20112;-39
2022/07/17 07:13:55;;;;;;;2.90;2.60;;;19.80;67.10;;;;;;5042653;28;20198;-39
2022/07/17 07:16:21;;;;;;;2.83;2.63;;;19.90;67.70;;;;;;5043301;28;20037;-37
2022/07/17 07:18:47;;;;;;;3.38;3.00;;;20.00;67.00;;;;;;5045738;28;20033;-39
2022/07/17 07:21:13;;;;;;;2.92;2.72;;;20.20;62.80;;;;;;5044294;28;20028;-39
2022/07/17 07:23:38;;;;;;;3.35;2.58;;;20.20;63.10;;;;;;5044176;28;20032;-39
2022/07/17 07:26:04;;;;;;;3.63;3.22;;;20.40;60.70;;;;;;5045852;28;20707;-39
2022/07/17 07:28:30;;;;;;;3.05;2.75;;;20.40;62.30;;;;;;5043360;28;20033;-38
2022/07/17 07:30:55;;;;;;;4.45;2.75;;;20.60;61.80;;;;;;5043607;28;20035;-38
2022/07/17 07:33:21;;;;;;;4.85;2.85;;;20.70;60.60;;;;;;5065624;28;20032;-36
2022/07/17 07:35:47;;;;;;;2.70;2.40;;;20.90;66.20;;;;;;5045303;28;20032;-39
2022/07/17 07:38:12;;;;;;;5.95;2.83;;;21.00;57.70;;;;;;5045444;28;20159;-39
2022/07/17 07:40:38;;;;;;;2.90;2.40;;;21.10;56.90;;;;;;5045237;28;20045;-39
2022/07/17 07:43:04;;;;;;;5.85;2.90;;;21.30;56.80;;;;;;5044668;28;20024;-36
2022/07/17 07:45:30;;;;;;;2.70;2.50;;;21.40;57.10;;;;;;5048468;28;20028;-37
2022/07/17 07:47:56;;;;;;;3.72;2.42;;;21.50;55.40;;;;;;5047362;28;20040;-39
2022/07/17 07:50:24;;;;;;;2.50;2.30;;;21.60;54.10;;;;;;5043477;28;20033;-39
2022/07/17 07:52:49;;;;;;;3.10;2.33;;;21.60;56.60;;;;;;5047809;28;20061;-39
2022/07/17 07:55:15;;;;;;;4.72;2.58;;;21.80;54.90;;;;;;5046489;28;20083;-39
2022/07/17 07:57:41;;;;;;;4.05;2.85;;;22.00;53.50;;;;;;5047278;28;20013;-37
2022/07/17 08:00:08;;;;;;;2.25;2.15;;;22.10;53.90;;;;;;5045027;28;20596;-39
2022/07/17 08:02:34;;;;;;;3.77;2.50;;;22.10;51.40;;;;;;5041093;28;20497;-39
2022/07/17 08:05:00;;;;;;;3.75;2.35;;;22.20;49.30;;;;;;5045188;28;20078;-38
2022/07/17 08:07:27;;;;;;;3.50;2.60;;;22.20;48.80;;;;;;5042386;28;20035;-38
2022/07/17 08:09:53;;;;;;;2.85;2.42;;;22.30;51.20;;;;;;5042580;28;20038;-38
2022/07/17 08:12:21;;;;;;;2.58;2.30;;;22.40;48.60;;;;;;5041401;28;20087;-39
2022/07/17 08:14:46;;;;;;;2.92;2.63;;;22.60;49.00;;;;;;5044901;28;20032;-38
2022/07/17 08:17:12;;;;;;;4.88;2.40;;;22.70;46.90;;;;;;5045702;28;20031;-38
2022/07/17 08:19:37;;;;;;;2.42;2.22;;;22.80;49.30;;;;;;5042398;28;20527;-37
2022/07/17 08:22:03;;;;;;;2.70;2.50;;;22.80;47.20;;;;;;5039965;28;20266;-39
2022/07/17 08:24:29;;;;;;;2.97;2.05;;;22.80;48.20;;;;;;5041750;28;20035;-39
2022/07/17 08:26:54;;;;;;;2.40;2.00;;;22.90;45.50;;;;;;5042442;28;20474;-38
2022/07/17 08:29:20;;;;;;;2.60;2.17;;;23.00;46.40;;;;;;5042316;28;20028;-35
2022/07/17 08:31:45;;;;;;;2.13;2.00;;;23.10;45.00;;;;;;5046053;28;20029;-39
2022/07/17 08:34:12;;;;;;;2.50;2.05;;;23.10;44.50;;;;;;5043605;28;20095;-38
2022/07/17 08:36:37;;;;;;;2.95;2.00;;;23.30;45.80;;;;;;5044286;28;20116;-37
2022/07/17 08:39:03;;;;;;;2.47;2.25;;;23.40;45.50;;;;;;5046338;28;20027;-39
2022/07/17 08:41:29;;;;;;;3.58;2.30;;;23.50;44.50;;;;;;5048216;28;20033;-38
2022/07/17 08:43:56;;;;;;;2.30;1.80;;;23.50;42.90;;;;;;5043207;28;20198;-38
2022/07/17 08:46:27;;;;;;;2.50;2.30;;;23.50;41.30;;;;;;5045085;28;20186;-36
2022/07/17 08:49:00;;;;;;;6.00;2.40;;;23.50;42.30;;;;;;5042638;28;20040;-39
2022/07/17 08:51:26;;;;;;;4.75;2.05;;;23.60;41.70;;;;;;5042427;28;20124;-39
2022/07/17 08:53:53;;;;;;;3.63;2.20;;;23.70;39.50;;;;;;5045780;28;20036;-37
2022/07/17 08:56:19;;;;;;;2.00;1.87;;;23.60;40.80;;;;;;5045719;28;20037;-38
2022/07/17 08:58:45;;;;;;;2.30;2.10;;;23.90;42.20;;;;;;5045311;28;20282;-39
2022/07/17 09:01:11;;;;;;;2.88;2.10;;;24.10;40.20;;;;;;5048872;28;20037;-37
2022/07/17 09:03:38;;;;;;;2.30;2.10;;;24.00;40.10;;;;;;5046686;28;20094;-38
2022/07/17 09:06:04;;;;;;;2.20;2.00;;;23.90;41.20;;;;;;5046804;28;21824;-36
2022/07/17 09:08:32;;;;;;;2.35;1.90;;;23.90;40.60;;;;;;5048052;28;20449;-39
2022/07/17 09:10:58;;;;;;;2.42;2.10;;;24.00;40.10;;;;;;5044012;28;20029;-39
2022/07/17 09:13:26;;;;;;;3.50;1.90;;;24.10;40.90;;;;;;5047373;28;20059;-39
2022/07/17 09:15:55;;;;;;;2.67;1.88;;;24.40;39.80;;;;;;5048068;28;20036;-38
2022/07/17 09:18:21;;;;;;;2.30;2.10;;;24.50;40.10;;;;;;5044791;28;20440;-38
2022/07/17 09:20:53;;;;;;;3.78;2.53;;;24.30;40.40;;;;;;5042521;28;20401;-36
2022/07/17 09:23:20;;;;;;;3.70;2.28;;;24.50;41.00;;;;;;5047538;28;20140;-37
2022/07/17 09:25:51;;;;;;;1.92;1.83;;;24.70;39.40;;;;;;5044040;28;20371;-38
2022/07/17 09:28:18;;;;;;;3.78;2.00;;;24.70;37.60;;;;;;5046901;28;20036;-39
2022/07/17 09:30:46;;;;;;;2.40;2.13;;;24.90;37.70;;;;;;5044937;28;20120;-35
2022/07/17 09:33:18;;;;;;;2.03;1.90;;;25.10;35.90;;;;;;5044071;28;20067;-36
2022/07/17 09:35:51;;;;;;;2.58;2.00;;;25.10;37.20;;;;;;5045173;28;20043;-38
2022/07/17 09:38:29;;;;;;;2.90;2.00;;;24.90;38.40;;;;;;5043595;28;20114;-39
2022/07/17 09:41:11;;;;;;;2.15;1.90;;;24.80;37.90;;;;;;5045507;28;20033;-39
2022/07/17 09:43:48;;;;;;;2.15;1.95;;;24.90;38.00;;;;;;5047000;28;20034;-39
2022/07/17 09:46:23;;;;;;;3.07;2.17;;;25.10;37.00;;;;;;5046736;28;20029;-36
2022/07/17 09:48:53;;;;;;;3.58;2.10;;;25.10;36.80;;;;;;5048267;28;20112;-39
2022/07/17 09:51:39;;;;;;;2.20;1.95;;;25.20;37.70;;;;;;5045910;28;20043;-36
2022/07/17 09:54:07;;;;;;;2.42;2.10;;;25.10;37.90;;;;;;5050191;28;20044;-39
2022/07/17 09:56:35;;;;;;;2.15;1.80;;;25.20;35.30;;;;;;5045263;28;20108;-38
2022/07/17 09:59:06;;;;;;;1.88;1.70;;;25.50;37.10;;;;;;5046817;28;20017;-36
2022/07/17 10:01:33;;;;;;;2.05;1.80;;;26.20;36.10;;;;;;5047709;28;20772;-39
2022/07/17 10:03:59;;;;;;;2.65;1.80;;;26.10;35.00;;;;;;5044871;28;20481;-39
2022/07/17 10:06:26;;;;;;;2.65;1.90;;;25.70;35.70;;;;;;5043636;28;20029;-39
2022/07/17 10:08:52;;;;;;;;;;;25.70;36.90;;;;;;5047284;28;20304;-36
2022/07/17 10:11:23;;;;;;;3.08;2.00;;;25.50;36.70;;;;;;5047057;28;19919;-39
2022/07/17 10:13:51;;;;;;;3.53;2.35;;;25.80;35.90;;;;;;5043732;28;20347;-39
2022/07/17 10:16:24;;;;;;;;;;;26.00;35.10;;;;;;5043593;28;20474;-39
2022/07/17 10:18:52;;;;;;;2.85;2.00;;;25.90;35.20;;;;;;5046772;28;19935;-37
2022/07/17 10:21:19;;;;;;;2.20;2.05;;;25.70;35.80;;;;;;5045467;28;20030;-39
2022/07/17 10:24:08;;;;;;;2.88;2.10;;;25.70;36.30;;;;;;5048410;28;20051;-36
2022/07/17 10:26:40;;;;;;;3.83;1.80;;;25.80;36.50;;;;;;5039228;28;20041;-38
2022/07/17 10:29:29;;;;;;;2.40;1.73;;;26.20;36.50;;;;;;5045031;28;20033;-38
2022/07/17 10:31:56;;;;;;;2.95;1.98;;;26.20;32.50;;;;;;5047431;28;20061;-38
2022/07/17 10:34:40;;;;;;;3.00;1.77;;;26.30;32.30;;;;;;5044081;28;20114;-38
2022/07/17 10:37:19;;;;;;;2.20;2.00;;;26.20;35.20;;;;;;5051292;28;20490;-35
2022/07/17 10:40:07;;;;;;;2.00;1.90;;;26.20;33.10;;;;;;5046472;28;20033;-39
2022/07/17 10:42:42;;;;;;;2.15;1.80;;;26.30;32.80;;;;;;5046578;28;20025;-39
2022/07/17 10:45:12;;;;;;;3.97;2.03;;;26.00;32.00;;;;;;5047354;28;20029;-36
2022/07/17 10:48:02;;;;;;;2.05;1.85;;;25.70;35.70;;;;;;5050578;28;20083;-39
2022/07/17 10:50:30;;;;;;;4.43;1.95;;;25.70;33.30;;;;;;5042769;28;20052;-37
2022/07/17 10:53:02;;;;;;;1.65;1.55;;;25.80;33.00;;;;;;5045814;28;20040;-38
2022/07/17 10:55:28;;;;;;;1.85;1.75;;;26.00;33.60;;;;;;5047778;28;20029;-38
2022/07/17 10:57:55;;;;;;;1.90;1.80;;;26.10;32.80;;;;;;5044272;28;20473;-37
2022/07/17 11:00:21;;;;;;;2.72;2.00;;;26.00;31.00;;;;;;5045802;28;20025;-39
2022/07/17 11:02:47;;;;;;;2.10;1.90;;;25.80;31.60;;;;;;5046199;28;20021;-36
2022/07/17 11:05:14;;;;;;;2.05;1.85;;;25.90;30.60;;;;;;5045498;28;20029;-39
2022/07/17 11:07:54;;;;;;;;;;;25.80;31.30;;;;;;5043603;28;20505;-39
2022/07/17 11:10:21;;;;;;;3.42;1.65;;;25.90;32.00;;;;;;5045271;28;19917;-39
2022/07/17 11:12:47;;;;;;;2.17;1.80;;;26.00;33.40;;;;;;5048185;28;20159;-37
2022/07/17 11:15:13;;;;;;;1.77;1.60;;;26.00;32.20;;;;;;5046068;28;20058;-37
2022/07/17 11:17:44;;;;;;;2.63;1.83;;;26.10;34.50;;;;;;5043129;28;20100;-39
2022/07/17 11:20:10;;;;;;;1.73;1.63;;;26.20;32.10;;;;;;5045671;28;20155;-38
2022/07/17 11:22:36;;;;;;;2.60;1.80;;;26.10;30.80;;;;;;5047153;28;20041;-39
2022/07/17 11:25:05;;;;;;;3.40;1.90;;;26.10;31.40;;;;;;5046246;28;20489;-36
2022/07/17 11:27:30;;;;;;;3.15;2.00;;;25.90;32.20;;;;;;5043672;28;20025;-37
2022/07/17 11:29:58;;;;;;;2.28;1.80;;;25.90;31.10;;;;;;5045210;28;20029;-37
2022/07/17 11:32:25;;;;;;;2.65;2.03;;;25.80;32.30;;;;;;5046031;28;20433;-39
2022/07/17 11:34:50;;;;;;;2.75;1.90;;;25.90;32.00;;;;;;5043122;28;20043;-36
2022/07/17 11:37:16;;;;;;;2.55;2.00;;;26.10;32.60;;;;;;5044812;28;20574;-36
2022/07/17 11:39:46;;;;;;;2.50;2.30;;;26.10;33.00;;;;;;5044929;28;20053;-38
2022/07/17 11:42:14;;;;;;;2.22;1.95;;;26.10;30.20;;;;;;5045800;28;20067;-38
2022/07/17 11:44:40;;;;;;;3.95;1.88;;;26.00;31.80;;;;;;5047865;28;20017;-38
2022/07/17 11:47:07;;;;;;;2.10;1.90;;;26.00;32.40;;;;;;5042895;28;20486;-39
2022/07/17 11:49:39;;;;;;;2.53;1.80;;;25.90;31.40;;;;;;5045482;28;20025;-39
2022/07/17 11:52:07;;;;;;;2.13;2.00;;;25.90;31.80;;;;;;5044040;28;20105;-39
2022/07/17 11:54:47;;;;;;;2.08;1.80;;;26.10;32.10;;;;;;5043948;28;20033;-36
2022/07/17 11:57:13;;;;;;;1.98;1.88;;;26.00;31.30;;;;;;5041479;28;20032;-38
2022/07/17 11:59:40;;;;;;;2.17;2.08;;;25.90;32.40;;;;;;5042890;28;20119;-39
2022/07/17 12:02:17;;;;;;;1.70;1.60;;;25.90;32.10;;;;;;5043749;28;20029;-39
2022/07/17 12:04:58;;;;;;;2.20;1.90;;;26.00;32.10;;;;;;5043111;28;20456;-37
2022/07/17 12:07:26;;;;;;;2.70;2.30;;;26.10;32.40;;;;;;5039337;28;20083;-37
2022/07/17 12:09:53;;;;;;;2.00;1.83;;;26.10;30.60;;;;;;5043050;28;20130;-37
2022/07/17 12:12:26;;;;;;;1.88;1.77;;;26.10;32.40;;;;;;5042625;28;20132;-39
2022/07/17 12:14:53;;;;;;;2.10;1.90;;;26.10;31.30;;;;;;5043250;28;20066;-36
2022/07/17 12:17:20;;;;;;;2.88;1.90;;;26.20;30.90;;;;;;5041543;28;20029;-37
2022/07/17 12:19:45;;;;;;;2.10;2.00;;;26.20;31.50;;;;;;5046314;28;20033;-39
2022/07/17 12:22:11;;;;;;;2.47;1.83;;;26.20;32.80;;;;;;5046073;28;20901;-38
2022/07/17 12:24:38;;;;;;;3.92;1.90;;;26.10;31.50;;;;;;5043793;28;20057;-38
2022/07/17 12:27:06;;;;;;;2.25;2.05;;;26.10;33.60;;;;;;5046519;28;20064;-39
2022/07/17 12:29:32;;;;;;;2.35;2.00;;;26.40;31.70;;;;;;5042306;28;20182;-35
2022/07/17 12:32:15;;;;;;;2.38;2.17;;;26.40;31.00;;;;;;5041983;28;20090;-38
2022/07/17 12:34:46;;;;;;;2.47;2.28;;;26.40;30.50;;;;;;5045155;28;20036;-38
2022/07/17 12:37:15;;;;;;;2.05;1.90;;;26.30;30.50;;;;;;5044506;28;20037;-39
2022/07/17 12:39:42;;;;;;;1.70;1.60;;;26.40;31.50;;;;;;5042256;28;20461;-39
2022/07/17 12:42:09;;;;;;;3.08;1.80;;;26.40;31.20;;;;;;5046638;28;20474;-39
2022/07/17 12:44:35;;;;;;;5.10;1.80;;;26.40;31.50;;;;;;5039896;28;20021;-39
2022/07/17 12:47:01;;;;;;;3.03;2.20;;;26.50;31.60;;;;;;5039831;28;20057;-39
2022/07/17 12:49:27;;;;;;;1.88;1.77;;;26.60;32.20;;;;;;5046236;28;20685;-37